Lushi, China
Current Conditions -  °F | °C
As of 3:00 PM on Tuesday 21 Oct 2014 (Local Time) from ZLXY Reporting Station
Haze Haze  
Wind Chill: 72°   Ceiling: Unl
Heat Index: 72°   Visibility: 2.1mi
Dew Point: 54°   Wind: 4mph
Humidity: 53%   Direction: 120°ESE
Pressure: 30.15"   Gusts: NA
Location:  34.05°N, 111.03°E
Report Text: ZLXY 210700Z 12002MPS 050V190 3500 HZ NSC 22/12 Q1021 NOSIG
Loading
Personal Weather Stations






























Interactive Weather Map
Tropical Storm Tracking
New forecast layout! Learn more

10-Day Weather Forecast

Advertisements
Track Severe Weather on mobile